createdAt,value
2023-04-26T00:01:58.953Z,99679.71
2023-04-26T00:04:26.329Z,99681.14
2023-04-26T00:06:53.461Z,99684.59
2023-04-26T00:09:20.465Z,99679.84
2023-04-26T00:11:47.475Z,99682.45
2023-04-26T00:14:14.517Z,99684.73
2023-04-26T00:16:41.540Z,99689.48
2023-04-26T00:19:09.955Z,99684.83
2023-04-26T00:21:37.132Z,99686.46
2023-04-26T00:24:05.732Z,99684.92
2023-04-26T00:26:34.446Z,99681.55
2023-04-26T00:29:02.273Z,99675.23
2023-04-26T00:31:29.436Z,99678.23
2023-04-26T00:33:56.657Z,99681.23
2023-04-26T00:36:23.695Z,99687.67
2023-04-26T00:38:50.987Z,99691.11
2023-04-26T00:41:18.208Z,99691.34
2023-04-26T00:43:45.373Z,99696.08
2023-04-26T00:46:12.791Z,99698.41
2023-04-26T00:48:39.802Z,99701.50
2023-04-26T00:51:07.447Z,99704.56
2023-04-26T00:53:35.556Z,99708.09
2023-04-26T00:56:03.144Z,99705.40
2023-04-26T00:58:30.227Z,99710.19
2023-04-26T01:00:57.321Z,99709.67
2023-04-26T01:03:24.946Z,99710.05
2023-04-26T01:05:52.579Z,99705.64
2023-04-26T01:08:21.276Z,99709.09
2023-04-26T01:10:51.243Z,99707.59
2023-04-26T01:13:18.927Z,99710.05
2023-04-26T01:15:47.585Z,99707.66
2023-04-26T01:18:15.124Z,99711.95
2023-04-26T01:20:43.159Z,99714.84
2023-04-26T01:23:11.646Z,99716.27
2023-04-26T01:25:38.977Z,99721.69
2023-04-26T01:28:06.176Z,99721.52
2023-04-26T01:30:33.293Z,99719.55
2023-04-26T01:33:03.396Z,99720.39
2023-04-26T01:35:30.621Z,99719.55
2023-04-26T01:37:57.661Z,99722.46
2023-04-26T01:40:24.619Z,99721.75
2023-04-26T01:42:51.606Z,99724.56
2023-04-26T01:45:18.687Z,99731.66
2023-04-26T01:48:04.412Z,99727.59
2023-04-26T01:50:32.554Z,99727.44
2023-04-26T01:52:59.518Z,99731.34
2023-04-26T01:55:26.844Z,99731.73
2023-04-26T01:57:53.848Z,99735.06
2023-04-26T02:00:20.952Z,99734.56
2023-04-26T02:02:49.608Z,99738.45
2023-04-26T02:05:16.784Z,99738.45
2023-04-26T02:07:43.849Z,99747.63
2023-04-26T02:10:10.976Z,99744.52
2023-04-26T02:12:38.195Z,99744.55
2023-04-26T02:15:06.360Z,99748.29
2023-04-26T02:17:34.640Z,99750.80
2023-04-26T02:20:01.793Z,99751.38
2023-04-26T02:22:29.695Z,99750.92
2023-04-26T02:24:56.754Z,99756.34
2023-04-26T02:27:27.874Z,99756.83
2023-04-26T02:29:54.911Z,99758.58
2023-04-26T02:32:22.109Z,99763.60
2023-04-26T02:34:49.713Z,99768.35
2023-04-26T02:37:16.683Z,99771.85
2023-04-26T02:39:43.776Z,99777.77
2023-04-26T02:42:11.100Z,99777.27
2023-04-26T02:44:40.185Z,99780.72
2023-04-26T02:47:07.914Z,99783.25
2023-04-26T02:49:35.222Z,99784.35
2023-04-26T02:52:02.259Z,99783.48
2023-04-26T02:54:29.902Z,99786.00
2023-04-26T02:56:58.423Z,99782.71
2023-04-26T02:59:25.488Z,99786.75
2023-04-26T03:01:52.576Z,99792.59
2023-04-26T03:04:19.745Z,99792.02
2023-04-26T03:06:46.788Z,99793.64
2023-04-26T03:09:14.026Z,99797.66
2023-04-26T03:11:41.561Z,99799.35
2023-04-26T03:14:08.635Z,99797.37
2023-04-26T03:16:41.650Z,99804.04
2023-04-26T03:19:08.689Z,99803.27
2023-04-26T03:21:36.355Z,99791.88
2023-04-26T03:24:04.257Z,99788.45
2023-04-26T03:26:31.286Z,99780.67
2023-04-26T03:28:58.489Z,99779.29
2023-04-26T03:31:25.734Z,99777.73
2023-04-26T03:33:52.906Z,99764.10
2023-04-26T03:36:20.302Z,99756.10
2023-04-26T03:38:47.373Z,99744.30
2023-04-26T03:41:14.879Z,99730.97
2023-04-26T03:43:41.988Z,99724.80
2023-04-26T03:46:09.164Z,99722.95
2023-04-26T03:48:36.692Z,99720.65
2023-04-26T03:51:04.205Z,99719.19
2023-04-26T03:53:31.253Z,99722.52
2023-04-26T03:55:58.282Z,99717.32
2023-04-26T03:58:26.137Z,99719.36
2023-04-26T04:00:56.204Z,99723.55
2023-04-26T04:03:23.685Z,99726.23
2023-04-26T04:05:52.003Z,99730.34
2023-04-26T04:08:19.043Z,99729.88
2023-04-26T04:10:46.031Z,99727.16
2023-04-26T04:13:13.055Z,99733.45
2023-04-26T04:15:40.908Z,99740.70
2023-04-26T04:18:08.076Z,99752.39
2023-04-26T04:20:35.091Z,99757.17
2023-04-26T04:23:04.544Z,99756.44
2023-04-26T04:25:32.701Z,99755.28
2023-04-26T04:28:03.039Z,99749.10
2023-04-26T04:30:30.968Z,99750.25
2023-04-26T04:33:00.994Z,99751.73
2023-04-26T04:35:33.809Z,99751.80
2023-04-26T04:38:03.527Z,99747.70
2023-04-26T04:40:30.783Z,99755.73
2023-04-26T04:42:58.093Z,99755.21
2023-04-26T04:45:27.199Z,99753.50
2023-04-26T04:47:56.446Z,99752.37
2023-04-26T04:50:23.713Z,99750.81
2023-04-26T04:52:50.759Z,99754.52
2023-04-26T04:55:17.792Z,99758.65
2023-04-26T04:57:45.135Z,99762.05
2023-04-26T05:00:13.095Z,99761.39
2023-04-26T05:03:02.983Z,99758.60
2023-04-26T05:05:31.359Z,99758.39
2023-04-26T05:07:58.382Z,99759.98
2023-04-26T05:10:26.615Z,99759.26
2023-04-26T05:12:53.938Z,99763.05
2023-04-26T05:15:21.056Z,99762.33
2023-04-26T05:17:48.146Z,99767.55
2023-04-26T05:20:21.805Z,99766.10
2023-04-26T05:22:49.353Z,99769.57
2023-04-26T05:25:17.688Z,99773.50
2023-04-26T05:27:48.020Z,99773.05
2023-04-26T05:30:47.581Z,99769.30
2023-04-26T05:33:33.706Z,99769.06
2023-04-26T05:36:15.921Z,99760.29
2023-04-26T05:38:42.963Z,99761.39
2023-04-26T05:41:09.942Z,99760.21
2023-04-26T05:43:37.637Z,99754.52
2023-04-26T05:46:05.414Z,99752.36
2023-04-26T05:48:32.444Z,99757.13
2023-04-26T05:50:59.456Z,99757.30
2023-04-26T05:53:26.480Z,99752.30
2023-04-26T05:55:53.523Z,99752.31
2023-04-26T05:58:20.926Z,99752.56
2023-04-26T06:00:48.116Z,99757.39
2023-04-26T06:03:15.403Z,99755.34
2023-04-26T06:05:42.919Z,99759.19
2023-04-26T06:08:10.116Z,99760.95
2023-04-26T06:10:37.803Z,99765.92
2023-04-26T06:13:05.009Z,99767.69
2023-04-26T06:15:34.220Z,99772.44
2023-04-26T06:18:01.414Z,99772.67
2023-04-26T06:20:28.581Z,99773.30
2023-04-26T06:22:55.712Z,99775.80
2023-04-26T06:25:22.958Z,99777.98
2023-04-26T06:27:50.065Z,99781.55
2023-04-26T06:30:17.262Z,99786.60
2023-04-26T06:32:47.111Z,99787.03
2023-04-26T06:35:14.519Z,99783.25
2023-04-26T06:37:42.203Z,99781.50
2023-04-26T06:40:11.220Z,99780.82
2023-04-26T06:42:38.304Z,99783.04
2023-04-26T06:45:32.353Z,99784.30
2023-04-26T06:48:02.188Z,99785.64
2023-04-26T06:50:29.483Z,99789.52
2023-04-26T06:52:56.514Z,99792.96
2023-04-26T06:55:24.090Z,99794.55
2023-04-26T06:57:51.165Z,99798.84
2023-04-26T07:00:18.494Z,99800.72
2023-04-26T07:02:46.013Z,99801.30
2023-04-26T07:05:13.555Z,99797.50
2023-04-26T07:07:41.031Z,99802.18
2023-04-26T07:10:09.781Z,99799.20
2023-04-26T07:12:36.939Z,99803.49
2023-04-26T07:15:06.722Z,99803.52
2023-04-26T07:17:33.755Z,99803.28
2023-04-26T07:20:01.185Z,99805.94
2023-04-26T07:22:28.223Z,99803.54
2023-04-26T07:24:55.291Z,99804.72
2023-04-26T07:27:22.345Z,99804.04
2023-04-26T07:29:49.569Z,99803.59
2023-04-26T07:32:16.631Z,99805.29
2023-04-26T07:34:43.694Z,99803.05
2023-04-26T07:37:10.661Z,99803.23
2023-04-26T07:39:37.700Z,99800.81
2023-04-26T07:42:04.865Z,99806.34
2023-04-26T07:44:31.839Z,99809.83
2023-04-26T07:46:58.885Z,99806.66
2023-04-26T07:49:25.922Z,99809.58
2023-04-26T07:51:53.140Z,99811.06
2023-04-26T07:54:20.173Z,99813.21
2023-04-26T07:56:47.127Z,99813.35
2023-04-26T07:59:14.200Z,99809.90
2023-04-26T08:01:41.644Z,99809.00
2023-04-26T08:04:08.998Z,99808.96
2023-04-26T08:06:36.297Z,99808.92
2023-04-26T08:09:05.144Z,99805.83
2023-04-26T08:11:32.866Z,99806.86
2023-04-26T08:13:59.969Z,99802.57
2023-04-26T08:16:27.048Z,99804.23
2023-04-26T08:18:54.898Z,99803.45
2023-04-26T08:21:21.893Z,99801.63
2023-04-26T08:23:48.866Z,99795.69
2023-04-26T08:26:15.783Z,99795.17
2023-04-26T08:28:42.787Z,99787.97
2023-04-26T08:31:10.371Z,99783.77
2023-04-26T08:33:37.522Z,99788.77
2023-04-26T08:36:05.226Z,99785.55
2023-04-26T08:38:32.717Z,99785.02
2023-04-26T08:41:02.125Z,99780.46
2023-04-26T08:43:29.620Z,99782.24
2023-04-26T08:45:56.970Z,99774.73
2023-04-26T08:48:23.980Z,99772.94
2023-04-26T08:50:51.611Z,99772.55
2023-04-26T08:53:18.639Z,99774.14
2023-04-26T08:55:49.562Z,99769.48
2023-04-26T08:58:17.523Z,99770.11
2023-04-26T09:00:47.420Z,99765.88
2023-04-26T09:03:14.774Z,99769.36
2023-04-26T09:05:45.755Z,99768.46
2023-04-26T09:08:18.850Z,99767.31
2023-04-26T09:10:45.817Z,99766.09
2023-04-26T09:13:13.061Z,99766.48
2023-04-26T09:15:40.381Z,99767.77
2023-04-26T09:18:20.904Z,99767.26
2023-04-26T09:21:02.553Z,99764.58
2023-04-26T09:23:29.512Z,99760.77
2023-04-26T09:25:56.468Z,99757.03
2023-04-26T09:28:24.088Z,99757.62
2023-04-26T09:30:51.250Z,99754.48
2023-04-26T09:33:19.634Z,99756.06
2023-04-26T09:35:46.749Z,99756.57
2023-04-26T09:38:15.330Z,99750.87
2023-04-26T09:40:46.768Z,99748.01
2023-04-26T09:43:16.194Z,99753.13
2023-04-26T09:45:53.254Z,99754.11
2023-04-26T09:48:23.894Z,99754.79
2023-04-26T09:51:09.094Z,99753.34
2023-04-26T09:53:46.544Z,99748.16
2023-04-26T09:56:19.066Z,99750.73
2023-04-26T09:58:58.967Z,99747.98
2023-04-26T10:01:27.063Z,99746.83
2023-04-26T10:03:54.421Z,99753.48
2023-04-26T10:06:21.556Z,99752.83
2023-04-26T10:08:48.575Z,99750.05
2023-04-26T10:11:15.713Z,99752.16
2023-04-26T10:13:43.071Z,99753.80
2023-04-26T10:16:10.566Z,99749.81
2023-04-26T10:18:37.783Z,99747.16
2023-04-26T10:21:31.646Z,99750.47
2023-04-26T10:23:59.781Z,99746.64
2023-04-26T10:26:53.161Z,99746.63
2023-04-26T10:29:20.980Z,99739.89
2023-04-26T10:32:06.611Z,99747.88
2023-04-26T10:34:34.284Z,99747.65
2023-04-26T10:37:14.439Z,99740.27
2023-04-26T10:39:46.482Z,99744.47
2023-04-26T10:42:27.698Z,99740.90
2023-04-26T10:44:56.181Z,99737.40
2023-04-26T10:47:31.933Z,99738.09
2023-04-26T10:50:05.570Z,99743.25
2023-04-26T10:52:33.294Z,99743.80
2023-04-26T10:55:00.396Z,99747.30
2023-04-26T10:57:51.645Z,99746.04
2023-04-26T11:00:21.261Z,99747.92
2023-04-26T11:03:04.905Z,99742.98
2023-04-26T11:05:37.591Z,99743.50
2023-04-26T11:08:18.402Z,99742.07
2023-04-26T11:10:50.909Z,99739.38
2023-04-26T11:13:18.309Z,99736.75
2023-04-26T11:15:46.380Z,99740.91
2023-04-26T11:18:13.356Z,99735.91
2023-04-26T11:20:40.425Z,99738.38
2023-04-26T11:23:07.997Z,99741.00
2023-04-26T11:25:34.966Z,99737.45
2023-04-26T11:28:02.567Z,99738.35
2023-04-26T11:30:33.110Z,99734.48
2023-04-26T11:33:00.891Z,99731.66
2023-04-26T11:35:29.820Z,99731.94
2023-04-26T11:38:00.870Z,99736.27
2023-04-26T11:40:30.041Z,99735.46
2023-04-26T11:43:15.649Z,99732.98
2023-04-26T11:45:42.786Z,99733.21
2023-04-26T11:48:10.925Z,99729.39
2023-04-26T11:50:38.566Z,99725.86
2023-04-26T11:53:06.957Z,99729.23
2023-04-26T11:55:34.331Z,99731.18
2023-04-26T11:58:03.306Z,99727.71
2023-04-26T12:00:30.444Z,99726.59
2023-04-26T12:02:58.474Z,99727.98
2023-04-26T12:05:27.045Z,99726.98
2023-04-26T12:07:55.786Z,99725.44
2023-04-26T12:10:34.831Z,99725.72
2023-04-26T12:13:01.836Z,99722.35
2023-04-26T12:15:33.244Z,99722.70
2023-04-26T12:18:11.063Z,99720.69
2023-04-26T12:20:40.121Z,99722.05
2023-04-26T12:23:07.720Z,99720.48
2023-04-26T12:25:36.261Z,99717.11
2023-04-26T12:28:12.581Z,99726.95
2023-04-26T12:30:40.223Z,99726.01
2023-04-26T12:33:16.272Z,99727.41
2023-04-26T12:35:44.624Z,99718.77
2023-04-26T12:38:12.571Z,99720.91
2023-04-26T12:40:39.812Z,99716.14
2023-04-26T12:43:06.956Z,99720.73
2023-04-26T12:45:34.036Z,99718.56
2023-04-26T12:48:01.201Z,99718.73
2023-04-26T12:50:28.250Z,99711.39
2023-04-26T12:52:55.283Z,99721.25
2023-04-26T12:55:22.252Z,99718.83
2023-04-26T12:57:49.291Z,99716.88
2023-04-26T13:00:17.779Z,99715.14
2023-04-26T13:02:44.931Z,99714.87
2023-04-26T13:05:12.733Z,99712.50
2023-04-26T13:07:42.602Z,99712.69
2023-04-26T13:10:12.854Z,99716.08
2023-04-26T13:12:40.467Z,99717.16
2023-04-26T13:15:08.340Z,99713.05
2023-04-26T13:17:36.331Z,99708.14
2023-04-26T13:20:04.743Z,99717.21
2023-04-26T13:22:31.757Z,99711.93
2023-04-26T13:24:58.784Z,99710.71
2023-04-26T13:27:25.901Z,99715.08
2023-04-26T13:29:53.483Z,99713.52
2023-04-26T13:32:20.511Z,99712.73
2023-04-26T13:34:47.600Z,99716.97
2023-04-26T13:37:14.682Z,99721.11
2023-04-26T13:39:41.615Z,99717.52
2023-04-26T13:42:08.688Z,99715.29
2023-04-26T13:44:35.803Z,99714.31
2023-04-26T13:47:02.801Z,99713.81
2023-04-26T13:49:29.827Z,99713.91
2023-04-26T13:51:56.788Z,99711.30
2023-04-26T13:54:25.981Z,99713.22
2023-04-26T13:56:53.693Z,99719.04
2023-04-26T13:59:20.894Z,99720.89
2023-04-26T14:01:47.983Z,99725.95
2023-04-26T14:04:15.319Z,99725.34
2023-04-26T14:06:42.485Z,99722.10
2023-04-26T14:09:09.690Z,99723.21
2023-04-26T14:11:36.775Z,99723.67
2023-04-26T14:14:03.806Z,99723.67
2023-04-26T14:16:30.947Z,99723.38
2023-04-26T14:18:58.037Z,99721.59
2023-04-26T14:21:25.034Z,99724.64
2023-04-26T14:23:51.998Z,99726.15
2023-04-26T14:26:20.361Z,99724.41
2023-04-26T14:28:48.140Z,99721.73
2023-04-26T14:31:17.788Z,99721.99
2023-04-26T14:33:44.877Z,99718.59
2023-04-26T14:36:12.783Z,99718.83
2023-04-26T14:38:43.772Z,99721.66
2023-04-26T14:41:15.722Z,99723.48
2023-04-26T14:43:43.660Z,99722.98
2023-04-26T14:46:10.678Z,99722.98
2023-04-26T14:48:37.763Z,99721.61
2023-04-26T14:51:04.825Z,99721.47
2023-04-26T14:53:31.812Z,99723.22
2023-04-26T14:55:58.868Z,99718.91
2023-04-26T14:58:26.358Z,99719.29
2023-04-26T15:00:53.667Z,99717.39
2023-04-26T15:03:20.996Z,99716.80
2023-04-26T15:05:48.127Z,99717.27
2023-04-26T15:08:15.271Z,99726.17
2023-04-26T15:10:42.576Z,99720.81
2023-04-26T15:13:09.574Z,99718.89
2023-04-26T15:15:36.623Z,99723.00
2023-04-26T15:18:03.936Z,99719.45
2023-04-26T15:20:31.240Z,99720.69
2023-04-26T15:22:58.264Z,99722.84
2023-04-26T15:25:25.302Z,99723.65
2023-04-26T15:27:52.268Z,99727.17
2023-04-26T15:30:19.327Z,99729.27
2023-04-26T15:32:50.526Z,99731.11
2023-04-26T15:35:17.583Z,99730.80
2023-04-26T15:37:44.772Z,99729.45
2023-04-26T15:40:12.244Z,99729.63
2023-04-26T15:42:39.425Z,99724.66
2023-04-26T15:45:07.093Z,99733.27
2023-04-26T15:47:35.533Z,99732.66
2023-04-26T15:50:03.891Z,99733.27
2023-04-26T15:52:36.261Z,99734.11
2023-04-26T15:55:07.202Z,99737.20
2023-04-26T15:57:34.793Z,99738.23
2023-04-26T16:00:02.158Z,99738.94
2023-04-26T16:02:31.493Z,99741.14
2023-04-26T16:04:58.873Z,99745.50
2023-04-26T16:07:26.596Z,99745.81
2023-04-26T16:09:53.650Z,99745.63
2023-04-26T16:12:20.664Z,99747.70
2023-04-26T16:14:48.983Z,99750.27
2023-04-26T16:17:16.143Z,99753.57
2023-04-26T16:19:43.226Z,99753.62
2023-04-26T16:22:10.177Z,99761.36
2023-04-26T16:24:37.274Z,99762.27
2023-04-26T16:27:04.840Z,99767.27
2023-04-26T16:29:31.818Z,99767.70
2023-04-26T16:31:58.954Z,99768.66
2023-04-26T16:34:26.874Z,99773.19
2023-04-26T16:36:53.826Z,99769.46
2023-04-26T16:39:21.692Z,99771.83
2023-04-26T16:41:48.893Z,99776.77
2023-04-26T16:44:16.847Z,99777.02
2023-04-26T16:46:43.937Z,99778.69
2023-04-26T16:49:11.032Z,99782.60
2023-04-26T16:51:38.256Z,99784.17
2023-04-26T16:54:05.531Z,99786.29
2023-04-26T16:56:32.594Z,99785.92
2023-04-26T16:58:59.691Z,99789.34
2023-04-26T17:01:26.977Z,99792.17
2023-04-26T17:03:54.388Z,99794.46
2023-04-26T17:06:21.552Z,99791.49
2023-04-26T17:08:48.655Z,99794.94
2023-04-26T17:11:16.298Z,99800.84
2023-04-26T17:13:43.600Z,99800.79
2023-04-26T17:16:10.705Z,99803.17
2023-04-26T17:18:37.775Z,99803.42
2023-04-26T17:21:05.125Z,99804.23
2023-04-26T17:23:33.864Z,99808.08
2023-04-26T17:26:01.919Z,99806.14
2023-04-26T17:28:29.381Z,99808.95
2023-04-26T17:30:56.387Z,99809.80
2023-04-26T17:33:23.745Z,99813.91
2023-04-26T17:35:50.695Z,99816.61
2023-04-26T17:38:17.797Z,99817.48
2023-04-26T17:40:44.808Z,99818.68
2023-04-26T17:43:11.944Z,99821.52
2023-04-26T17:45:38.979Z,99824.20
2023-04-26T17:48:10.955Z,99823.41
2023-04-26T17:50:38.005Z,99825.01
2023-04-26T17:53:06.139Z,99826.36
2023-04-26T17:55:33.386Z,99825.00
2023-04-26T17:58:00.919Z,99827.13
2023-04-26T18:00:28.056Z,99824.85
2023-04-26T18:02:56.379Z,99824.69
2023-04-26T18:05:24.622Z,99823.10
2023-04-26T18:07:51.969Z,99824.27
2023-04-26T18:10:19.173Z,99827.88
2023-04-26T18:12:46.390Z,99826.23
2023-04-26T18:15:14.033Z,99824.58
2023-04-26T18:17:41.618Z,99822.50
2023-04-26T18:20:09.458Z,99823.43
2023-04-26T18:22:36.459Z,99820.44
2023-04-26T18:25:04.025Z,99816.86
2023-04-26T18:27:31.656Z,99817.26
2023-04-26T18:29:58.841Z,99817.29
2023-04-26T18:32:26.120Z,99817.14
2023-04-26T18:34:53.122Z,99814.56
2023-04-26T18:37:20.417Z,99818.07
2023-04-26T18:39:48.746Z,99812.36
2023-04-26T18:42:15.993Z,99811.05
2023-04-26T18:44:43.013Z,99812.72
2023-04-26T18:47:10.051Z,99807.62
2023-04-26T18:49:37.145Z,99806.45
2023-04-26T18:52:04.565Z,99802.76
2023-04-26T18:54:33.198Z,99804.02
2023-04-26T18:57:01.318Z,99802.66
2023-04-26T18:59:30.372Z,99803.85
2023-04-26T19:01:57.487Z,99801.44
2023-04-26T19:04:24.722Z,99799.91
2023-04-26T19:06:51.950Z,99801.83
2023-04-26T19:09:18.927Z,99800.63
2023-04-26T19:11:46.412Z,99797.85
2023-04-26T19:14:13.493Z,99796.48
2023-04-26T19:16:40.568Z,99792.98
2023-04-26T19:19:07.554Z,99796.38
2023-04-26T19:21:35.258Z,99793.39
2023-04-26T19:24:02.294Z,99794.04
2023-04-26T19:26:29.283Z,99785.92
2023-04-26T19:28:56.359Z,99786.01
2023-04-26T19:31:23.440Z,99786.22
2023-04-26T19:33:50.544Z,99781.80
2023-04-26T19:36:17.606Z,99776.81
2023-04-26T19:38:44.738Z,99776.10
2023-04-26T19:41:11.761Z,99774.42
2023-04-26T19:43:38.803Z,99773.98
2023-04-26T19:46:13.111Z,99774.70
2023-04-26T19:48:41.123Z,99772.34
2023-04-26T19:51:08.115Z,99773.17
2023-04-26T19:53:35.411Z,99776.46
2023-04-26T19:56:03.246Z,99776.31
2023-04-26T19:58:30.333Z,99772.70
2023-04-26T20:00:57.392Z,99773.48
2023-04-26T20:03:24.711Z,99772.75
2023-04-26T20:05:51.834Z,99776.99
2023-04-26T20:08:19.281Z,99777.48
2023-04-26T20:10:46.277Z,99777.57
2023-04-26T20:13:13.313Z,99780.16
2023-04-26T20:15:40.337Z,99779.81
2023-04-26T20:18:07.474Z,99780.78
2023-04-26T20:20:34.525Z,99781.27
2023-04-26T20:23:03.169Z,99779.35
2023-04-26T20:25:30.231Z,99780.16
2023-04-26T20:27:57.423Z,99780.37
2023-04-26T20:30:24.584Z,99780.58
2023-04-26T20:32:51.607Z,99777.86
2023-04-26T20:35:18.626Z,99779.94
2023-04-26T20:37:45.923Z,99780.43
2023-04-26T20:40:13.092Z,99780.20
2023-04-26T20:42:40.146Z,99780.64
2023-04-26T20:45:07.659Z,99781.05
2023-04-26T20:47:34.678Z,99778.80
2023-04-26T20:50:01.680Z,99779.20
2023-04-26T20:52:28.699Z,99777.94
2023-04-26T20:54:57.346Z,99775.52
2023-04-26T20:57:24.562Z,99772.64
2023-04-26T20:59:51.526Z,99777.49
2023-04-26T21:04:43.540Z,99779.38
2023-04-26T21:07:10.788Z,99781.08
2023-04-26T21:09:38.040Z,99778.05
2023-04-26T21:12:05.775Z,99776.89
2023-04-26T21:14:33.019Z,99782.20
2023-04-26T21:17:01.679Z,99782.64
2023-04-26T21:19:28.798Z,99783.57
2023-04-26T21:21:57.495Z,99782.59
2023-04-26T21:24:24.565Z,99785.59
2023-04-26T21:26:51.676Z,99779.69
2023-04-26T21:29:18.827Z,99777.73
2023-04-26T21:31:46.192Z,99769.71
2023-04-26T21:34:13.576Z,99771.92
2023-04-26T21:36:40.712Z,99770.60
2023-04-26T21:39:07.998Z,99767.43
2023-04-26T21:41:35.297Z,99767.71
2023-04-26T21:44:02.543Z,99763.29
2023-04-26T21:46:29.921Z,99763.70
2023-04-26T21:48:57.152Z,99764.56
2023-04-26T21:51:24.811Z,99762.56
2023-04-26T21:53:51.936Z,99763.81
2023-04-26T21:56:19.154Z,99763.70
2023-04-26T21:58:46.570Z,99759.64
2023-04-26T22:01:14.915Z,99762.40
2023-04-26T22:03:42.165Z,99762.21
2023-04-26T22:06:09.835Z,99760.77
2023-04-26T22:08:37.014Z,99759.59
2023-04-26T22:11:04.282Z,99760.84
2023-04-26T22:13:31.533Z,99759.27
2023-04-26T22:15:58.745Z,99753.20
2023-04-26T22:18:29.541Z,99751.52
2023-04-26T22:20:56.764Z,99752.75
2023-04-26T22:23:23.933Z,99753.16
2023-04-26T22:25:51.094Z,99750.67
2023-04-26T22:28:18.218Z,99754.73
2023-04-26T22:30:45.357Z,99750.23
2023-04-26T22:33:12.595Z,99753.24
2023-04-26T22:35:39.870Z,99752.71
2023-04-26T22:38:07.136Z,99757.40
2023-04-26T22:40:34.395Z,99762.55
2023-04-26T22:43:02.079Z,99762.23
2023-04-26T22:45:29.193Z,99761.10
2023-04-26T22:47:56.359Z,99761.79
2023-04-26T22:50:23.844Z,99756.20
2023-04-26T22:52:51.294Z,99750.19
2023-04-26T22:55:18.542Z,99750.92
2023-04-26T22:57:46.792Z,99746.13
2023-04-26T23:00:14.837Z,99745.16
2023-04-26T23:02:42.096Z,99741.71
2023-04-26T23:05:12.712Z,99741.40
2023-04-26T23:07:40.241Z,99738.83
2023-04-26T23:10:08.106Z,99731.13
2023-04-26T23:12:36.377Z,99734.42
2023-04-26T23:15:05.354Z,99733.30
2023-04-26T23:17:34.380Z,99730.76
2023-04-26T23:20:01.691Z,99732.23
2023-04-26T23:22:28.772Z,99729.48
2023-04-26T23:24:56.170Z,99724.29
2023-04-26T23:27:25.076Z,99724.29
2023-04-26T23:29:52.253Z,99723.13
2023-04-26T23:32:19.473Z,99721.48
2023-04-26T23:34:46.725Z,99719.07
2023-04-26T23:37:13.867Z,99715.86
2023-04-26T23:39:41.233Z,99715.10
2023-04-26T23:42:08.304Z,99712.08
2023-04-26T23:44:35.520Z,99718.80
2023-04-26T23:47:02.694Z,99711.03
2023-04-26T23:49:29.820Z,99718.42
2023-04-26T23:51:57.035Z,99711.12
2023-04-26T23:54:24.229Z,99706.98
2023-04-26T23:56:51.480Z,99709.86
2023-04-26T23:59:18.630Z,99710.16
